Terminal Aerodrome Forecast
Issued by NWS

Current Version | Previous Version | Graphics & Text | Print | Product List | Glossary On
Versions: 1 2 3 4 5 6 7 8 9 10 11 12 13 14 15 16 17 18 19 20 21 22 23
678
FTUS41 KRLX 211750 RRA
TAFCKB
TAF
KCKB 211750Z 2118/2218 VRB03KT P6SM FEW050
     FM212300 00000KT P6SM BKN250
     FM221000 17003KT P6SM BKN150
     FM221400 24006KT P6SM BKN045=

USA.gov is the U.S. government's official web portal to all federal, state and local government web resources and services.